TFM - Tactical Decision Aid (Experimental) INFO Settings
ID: Runway Winds: CIG/VIS Threshold: METAR Board: Map:

KCLT - Charlotte-Douglas Intl

Updated at: 2349 UTC 16 Oct 2017
Latest TAF at: 2320 UTC 16 Oct 2017

TAF Board

Time2252Z17/00Z17/01Z17/02Z17/03Z17/04Z17/05Z17/06Z17/07Z17/08Z17/09Z17/10Z17/11Z17/12Z
TypeOBSPRVLPRVLPRVLPRVLPRVLPRVLPRVLPRVLPRVLPRVLPRVLPRVLPRVL
VIS10>6>6>6>6>6>6>6>6>6>6>6>6>6
CIG----------------------------
CoverFEWFEWFEWFEWFEWFEWFEWFEWFEWFEWFEWFEWFEWFEW
FltCatVFRVFRVFRVFRVFRVFRVFRVFRVFRVFRVFRVFRVFRVFR
WX----------------------------
WDir2010101010101010101010101010
WSpd99999999999999
WGst----------------------------
TAF
KCLT 162320Z 1700/1724 01009KT P6SM FEW250
  FM171500 03010G16KT P6SM SKC
  FM172000 04006KT P6SM SKC


METAR
KCLT 162252Z 02009KT 10SM FEW250 16/07 A3016 RMK AO2 SLP206 T01610067

TAF/METAR Board Legend

Potential Impact
  None Marginal Slight Moderate High
Visibility (sm) >5 3≤X≤5 1≤X<3 0.5≤X<1 <0.5
Ceiling (100 ft) >30 10≤X≤30 4≤X<10 2≤X<4 <2
Wind Speed (kt) <10 10≤X<20 20≤X<30 ≥30
Wind Gust (kt) <15 15≤X<25 25≤X<35 ≥35
Weather No Wx Reported VCTS -TS,-FZRA TS,FZRA +TS,+FZRA